Terminal Aerodrome Forecast
Issued by NWS Louisville, KY

Home | Current Version | Previous Version | Text Only | Print | Product List | Glossary On
Versions: 1 2 3 4 5 6 7 8 9 10 11 12 13 14
000
FTUS43 KLMK 231100
TAFSDF
TAF
KSDF 231120Z 2312/2418 14007KT P6SM SCT050 WS020/19035KT
     FM231500 14012KT P6SM BKN035
     FM231900 14012G18KT 4SM SHRA BKN015
     FM240300 19015G25KT P6SM VCSH OVC020
     FM241300 21020G32KT P6SM BKN020=

USA.gov is the U.S. government's official web portal to all federal, state and local government web resources and services.